NCAR-RAP Real-Time Weather Data

Output produced by METARs form (18 August 2018  01:02 UTC)
found at http://weather.rap.ucar.edu/surface/
 
RJFG 180000Z 07006KT 010V120 9999 FEW023 BKN070 27/22 Q1010
RJFG 172330Z 08005KT 020V130 9999 FEW025 BKN070 26/22 Q1010
RJFG 170900Z 07006KT 020V140 9999 FEW005 SCT010 BKN/// 26/24 Q1008
RJFG 170800Z 06006KT 020V110 9999 FEW007 SCT010 BKN/// 26/24 Q1008
RJFG 170700Z 08007KT 030V140 9999 FEW013 BKN/// 28/24 Q1007
RJFG 170600Z 07006KT 030V140 9999 FEW013 BKN/// 28/23 Q1007
RJFG 170500Z 08008KT 030V120 9999 FEW013 SCT015 BKN/// 28/23 Q1007
RJFG 170400Z 09007KT 360V120 9999 FEW015 SCT025 BKN/// 28/23 Q1008
RJFG 170300Z 10009KT 060V130 9999 FEW013 SCT015 BKN/// 28/24 Q1008
RJFG 170200Z 10008KT 070V140 9999 FEW015 BKN/// 29/24 Q1008
RJFG 170100Z 10008KT 060V150 9999 FEW015 SCT020 BKN/// 29/23 Q1009
RJFG 170000Z 09006KT 040V140 9999 FEW010 SCT015 BKN020 27/24 Q1009
RJFG 162330Z 10006KT 060V140 9999 FEW010 SCT015 BKN/// 27/24 Q1009
RJFG 160900Z 12008KT 9999 FEW008 SCT015 BKN/// 27/25 Q1008
RJFG 160800Z 11012KT 9999 FEW007 SCT010 BKN015 28/25 Q1008
RJFG 160700Z 11010KT 9999 FEW008 SCT010 BKN015 28/25 Q1008
RJFG 160600Z 11011KT 9999 FEW009 SCT010 BKN015 28/25 Q1008
RJFG 160500Z 12010KT 090V160 9999 FEW007 SCT010 BKN015 28/25 Q1008
RJFG 160400Z 13011KT 100V170 9999 FEW010 BKN015 29/25 Q1008
RJFG 160300Z 14013KT 120V180 9999 FEW008 SCT010 BKN030 28/25 Q1008
RJFG 160200Z 14013KT 9999 FEW008 SCT010 BKN015 28/25 Q1008
RJFG 160100Z 14013KT 9999 FEW006 SCT010 BKN015 27/26 Q1008
RJFG 160005Z 15011KT 9999 FEW005 SCT010 BKN140 26/25 Q1008 RMK 1ST005 3CU010 5AC140 A2977
RJFG 160000Z 15013KT 9999 R31/0300VP1800U FEW005 SCT010 BKN140 27/25 Q1008
RJFG 152330Z 15012KT 9999 FEW006 SCT010 BKN015 27/26 Q1008